sensor_id;sensor_type;location;lat;lon;timestamp;P1;P2;P0
80861;PMS5003;71798;54.942;73.444;2024-02-21T00:00:23;43.00;35.00;21.00
80861;PMS5003;71798;54.942;73.444;2024-02-21T00:02:54;46.25;36.75;23.75
80861;PMS5003;71798;54.942;73.444;2024-02-21T00:05:22;48.50;37.75;23.25
80861;PMS5003;71798;54.942;73.444;2024-02-21T00:07:52;50.00;40.00;25.00
80861;PMS5003;71798;54.942;73.444;2024-02-21T00:10:23;43.50;37.00;22.00
80861;PMS5003;71798;54.942;73.444;2024-02-21T00:12:51;50.25;39.00;23.75
80861;PMS5003;71798;54.942;73.444;2024-02-21T00:15:23;48.25;39.25;25.00
80861;PMS5003;71798;54.942;73.444;2024-02-21T00:17:52;46.00;37.00;23.00
80861;PMS5003;71798;54.942;73.444;2024-02-21T00:20:20;75.25;61.25;36.75
80861;PMS5003;71798;54.942;73.444;2024-02-21T00:22:49;57.75;45.75;30.25
80861;PMS5003;71798;54.942;73.444;2024-02-21T00:25:19;41.75;32.75;19.75
80861;PMS5003;71798;54.942;73.444;2024-02-21T00:27:47;51.00;39.25;24.75
80861;PMS5003;71798;54.942;73.444;2024-02-21T00:30:16;45.75;37.25;23.25
80861;PMS5003;71798;54.942;73.444;2024-02-21T00:32:45;50.00;39.00;24.50
80861;PMS5003;71798;54.942;73.444;2024-02-21T00:35:14;57.00;43.00;27.00
80861;PMS5003;71798;54.942;73.444;2024-02-21T00:37:44;52.50;41.25;25.25
80861;PMS5003;71798;54.942;73.444;2024-02-21T00:40:15;56.75;45.00;28.25
80861;PMS5003;71798;54.942;73.444;2024-02-21T00:42:53;56.00;44.00;27.00
80861;PMS5003;71798;54.942;73.444;2024-02-21T00:45:23;67.00;51.50;31.25
80861;PMS5003;71798;54.942;73.444;2024-02-21T00:47:52;57.00;44.00;27.00
80861;PMS5003;71798;54.942;73.444;2024-02-21T00:50:24;49.75;39.50;24.00
80861;PMS5003;71798;54.942;73.444;2024-02-21T00:52:56;47.25;38.25;24.00
80861;PMS5003;71798;54.942;73.444;2024-02-21T00:55:26;45.50;36.50;23.00
80861;PMS5003;71798;54.942;73.444;2024-02-21T00:57:55;52.00;40.00;24.00
80861;PMS5003;71798;54.942;73.444;2024-02-21T01:00:24;48.00;39.00;23.00
80861;PMS5003;71798;54.942;73.444;2024-02-21T01:02:52;38.50;30.25;18.00
80861;PMS5003;71798;54.942;73.444;2024-02-21T01:05:20;54.50;43.25;26.00
80861;PMS5003;71798;54.942;73.444;2024-02-21T01:07:50;41.25;33.25;21.25
80861;PMS5003;71798;54.942;73.444;2024-02-21T01:10:19;36.25;30.50;18.75
80861;PMS5003;71798;54.942;73.444;2024-02-21T01:12:49;50.50;38.00;23.00
80861;PMS5003;71798;54.942;73.444;2024-02-21T01:15:17;51.00;40.00;25.00
80861;PMS5003;71798;54.942;73.444;2024-02-21T01:17:48;43.00;35.00;22.00
80861;PMS5003;71798;54.942;73.444;2024-02-21T01:20:21;49.25;39.00;24.00
80861;PMS5003;71798;54.942;73.444;2024-02-21T01:22:50;46.50;38.50;25.00
80861;PMS5003;71798;54.942;73.444;2024-02-21T01:25:18;46.00;37.25;24.00
80861;PMS5003;71798;54.942;73.444;2024-02-21T01:27:47;50.00;38.50;23.50
80861;PMS5003;71798;54.942;73.444;2024-02-21T01:30:18;50.50;39.25;24.00
80861;PMS5003;71798;54.942;73.444;2024-02-21T01:32:49;42.00;33.00;21.25
80861;PMS5003;71798;54.942;73.444;2024-02-21T01:35:22;30.00;25.50;16.00
80861;PMS5003;71798;54.942;73.444;2024-02-21T01:37:51;45.50;37.25;24.75
80861;PMS5003;71798;54.942;73.444;2024-02-21T01:40:23;36.00;29.75;18.25
80861;PMS5003;71798;54.942;73.444;2024-02-21T01:42:56;41.00;34.25;22.00
80861;PMS5003;71798;54.942;73.444;2024-02-21T01:45:27;49.25;38.00;23.00
80861;PMS5003;71798;54.942;73.444;2024-02-21T01:47:57;47.50;38.00;23.50
80861;PMS5003;71798;54.942;73.444;2024-02-21T01:50:27;35.00;27.00;16.00
80861;PMS5003;71798;54.942;73.444;2024-02-21T01:52:59;53.00;42.00;25.00
80861;PMS5003;71798;54.942;73.444;2024-02-21T01:55:29;46.25;35.00;22.00
80861;PMS5003;71798;54.942;73.444;2024-02-21T01:57:59;43.50;34.75;20.50
80861;PMS5003;71798;54.942;73.444;2024-02-21T02:00:31;44.00;33.75;21.75
80861;PMS5003;71798;54.942;73.444;2024-02-21T02:03:01;42.75;35.00;23.00
80861;PMS5003;71798;54.942;73.444;2024-02-21T02:05:33;44.00;35.75;22.50
80861;PMS5003;71798;54.942;73.444;2024-02-21T02:13:41;42.75;35.00;22.00
80861;PMS5003;71798;54.942;73.444;2024-02-21T02:16:07;45.25;36.00;23.00
80861;PMS5003;71798;54.942;73.444;2024-02-21T02:18:33;49.00;38.00;24.00
80861;PMS5003;71798;54.942;73.444;2024-02-21T02:21:00;47.00;37.25;23.50
80861;PMS5003;71798;54.942;73.444;2024-02-21T02:23:29;33.25;26.00;15.75
80861;PMS5003;71798;54.942;73.444;2024-02-21T02:25:57;44.00;36.00;22.25
80861;PMS5003;71798;54.942;73.444;2024-02-21T02:31:26;47.00;37.25;22.00
80861;PMS5003;71798;54.942;73.444;2024-02-21T02:33:53;45.00;37.00;22.00
80861;PMS5003;71798;54.942;73.444;2024-02-21T02:39:23;48.75;38.00;24.50
80861;PMS5003;71798;54.942;73.444;2024-02-21T02:41:49;39.00;30.00;19.00
80861;PMS5003;71798;54.942;73.444;2024-02-21T02:44:15;48.25;39.00;25.00
80861;PMS5003;71798;54.942;73.444;2024-02-21T02:47:00;42.00;34.00;21.00
80861;PMS5003;71798;54.942;73.444;2024-02-21T02:52:49;40.75;31.00;19.00
80861;PMS5003;71798;54.942;73.444;2024-02-21T02:55:16;52.00;42.00;27.00
80861;PMS5003;71798;54.942;73.444;2024-02-21T02:58:28;49.50;38.75;22.00
80861;PMS5003;71798;54.942;73.444;2024-02-21T03:01:38;46.25;35.00;21.00
80861;PMS5003;71798;54.942;73.444;2024-02-21T03:04:49;47.00;38.00;23.25
80861;PMS5003;71798;54.942;73.444;2024-02-21T03:08:00;50.00;38.75;25.25
80861;PMS5003;71798;54.942;73.444;2024-02-21T03:11:13;48.50;38.75;24.50
80861;PMS5003;71798;54.942;73.444;2024-02-21T03:14:24;47.25;38.50;24.75
80861;PMS5003;71798;54.942;73.444;2024-02-21T03:17:35;52.00;41.00;26.00
80861;PMS5003;71798;54.942;73.444;2024-02-21T03:20:02;47.25;37.75;22.25
80861;PMS5003;71798;54.942;73.444;2024-02-21T03:22:31;65.75;50.25;29.75
80861;PMS5003;71798;54.942;73.444;2024-02-21T03:24:58;41.50;34.00;22.50
80861;PMS5003;71798;54.942;73.444;2024-02-21T03:27:24;44.25;34.50;21.00
80861;PMS5003;71798;54.942;73.444;2024-02-21T03:29:50;42.75;34.75;22.75
80861;PMS5003;71798;54.942;73.444;2024-02-21T03:32:17;46.00;36.75;23.50
80861;PMS5003;71798;54.942;73.444;2024-02-21T03:34:43;52.25;41.50;27.00
80861;PMS5003;71798;54.942;73.444;2024-02-21T03:37:09;38.75;31.00;19.00
80861;PMS5003;71798;54.942;73.444;2024-02-21T03:39:36;47.00;38.00;24.00
80861;PMS5003;71798;54.942;73.444;2024-02-21T03:42:03;53.00;41.00;25.25
80861;PMS5003;71798;54.942;73.444;2024-02-21T03:44:32;48.75;39.00;24.00
80861;PMS5003;71798;54.942;73.444;2024-02-21T03:47:02;50.50;40.50;25.25
80861;PMS5003;71798;54.942;73.444;2024-02-21T03:49:28;45.00;36.75;24.00
80861;PMS5003;71798;54.942;73.444;2024-02-21T03:51:54;45.00;36.00;22.25
80861;PMS5003;71798;54.942;73.444;2024-02-21T03:54:21;44.00;35.50;22.00
80861;PMS5003;71798;54.942;73.444;2024-02-21T03:56:47;43.00;34.00;21.00
80861;PMS5003;71798;54.942;73.444;2024-02-21T03:59:14;31.00;24.25;14.75
80861;PMS5003;71798;54.942;73.444;2024-02-21T04:01:41;26.50;23.25;15.25
80861;PMS5003;71798;54.942;73.444;2024-02-21T04:04:07;34.75;29.00;17.00
80861;PMS5003;71798;54.942;73.444;2024-02-21T04:06:33;36.50;29.00;17.00
80861;PMS5003;71798;54.942;73.444;2024-02-21T04:08:59;31.50;26.75;16.25
80861;PMS5003;71798;54.942;73.444;2024-02-21T04:11:26;30.25;25.25;15.50
80861;PMS5003;71798;54.942;73.444;2024-02-21T04:13:52;32.25;27.00;17.00
80861;PMS5003;71798;54.942;73.444;2024-02-21T04:16:18;41.50;35.00;22.00
80861;PMS5003;71798;54.942;73.444;2024-02-21T04:18:44;48.00;37.00;23.75
80861;PMS5003;71798;54.942;73.444;2024-02-21T04:21:13;41.00;33.00;21.00
80861;PMS5003;71798;54.942;73.444;2024-02-21T04:23:40;49.00;39.25;24.25
80861;PMS5003;71798;54.942;73.444;2024-02-21T04:26:06;51.75;41.50;26.00
80861;PMS5003;71798;54.942;73.444;2024-02-21T04:28:32;49.50;40.25;25.75
80861;PMS5003;71798;54.942;73.444;2024-02-21T04:30:59;41.00;33.25;21.25
80861;PMS5003;71798;54.942;73.444;2024-02-21T04:33:25;51.00;40.00;24.00
80861;PMS5003;71798;54.942;73.444;2024-02-21T04:35:52;43.00;35.50;23.00
80861;PMS5003;71798;54.942;73.444;2024-02-21T04:38:20;50.00;40.00;26.00
80861;PMS5003;71798;54.942;73.444;2024-02-21T04:40:47;49.75;39.75;23.00
80861;PMS5003;71798;54.942;73.444;2024-02-21T04:43:13;51.00;40.00;25.00
80861;PMS5003;71798;54.942;73.444;2024-02-21T04:45:39;48.25;38.00;23.00
80861;PMS5003;71798;54.942;73.444;2024-02-21T04:48:05;54.25;42.75;26.00
80861;PMS5003;71798;54.942;73.444;2024-02-21T04:50:32;50.00;39.00;24.00
80861;PMS5003;71798;54.942;73.444;2024-02-21T04:52:58;53.00;41.00;25.00
80861;PMS5003;71798;54.942;73.444;2024-02-21T04:55:24;55.25;43.00;26.50
80861;PMS5003;71798;54.942;73.444;2024-02-21T04:57:50;45.00;37.00;23.75
80861;PMS5003;71798;54.942;73.444;2024-02-21T05:00:17;47.00;37.75;24.00
80861;PMS5003;71798;54.942;73.444;2024-02-21T05:02:43;41.75;34.25;22.00
80861;PMS5003;71798;54.942;73.444;2024-02-21T05:05:09;36.00;29.00;17.00
80861;PMS5003;71798;54.942;73.444;2024-02-21T05:07:35;42.75;35.00;23.00
80861;PMS5003;71798;54.942;73.444;2024-02-21T05:10:02;42.50;34.25;21.50
80861;PMS5003;71798;54.942;73.444;2024-02-21T05:12:28;46.00;37.00;22.00
80861;PMS5003;71798;54.942;73.444;2024-02-21T05:14:55;46.00;38.00;23.00
80861;PMS5003;71798;54.942;73.444;2024-02-21T05:17:22;41.75;33.25;21.75
80861;PMS5003;71798;54.942;73.444;2024-02-21T05:19:48;47.75;37.50;22.75
80861;PMS5003;71798;54.942;73.444;2024-02-21T05:22:14;37.25;30.50;20.00
80861;PMS5003;71798;54.942;73.444;2024-02-21T05:24:40;46.00;36.25;22.25
80861;PMS5003;71798;54.942;73.444;2024-02-21T05:27:06;41.75;33.00;20.00
80861;PMS5003;71798;54.942;73.444;2024-02-21T05:29:33;47.00;37.00;23.00
80861;PMS5003;71798;54.942;73.444;2024-02-21T05:31:59;43.50;35.00;22.00
80861;PMS5003;71798;54.942;73.444;2024-02-21T05:34:26;39.00;31.25;19.00
80861;PMS5003;71798;54.942;73.444;2024-02-21T05:36:52;26.50;24.25;15.50
80861;PMS5003;71798;54.942;73.444;2024-02-21T05:39:19;32.00;25.50;16.25
80861;PMS5003;71798;54.942;73.444;2024-02-21T05:41:45;30.50;24.00;14.50
80861;PMS5003;71798;54.942;73.444;2024-02-21T05:44:11;30.00;24.50;15.00
80861;PMS5003;71798;54.942;73.444;2024-02-21T05:46:38;45.00;36.75;23.00
80861;PMS5003;71798;54.942;73.444;2024-02-21T05:49:04;34.00;27.75;16.00
80861;PMS5003;71798;54.942;73.444;2024-02-21T05:51:34;33.50;25.25;16.00
80861;PMS5003;71798;54.942;73.444;2024-02-21T05:54:00;28.75;24.25;14.25
80861;PMS5003;71798;54.942;73.444;2024-02-21T05:56:27;27.25;21.00;11.00
80861;PMS5003;71798;54.942;73.444;2024-02-21T05:58:53;24.75;20.25;11.75
80861;PMS5003;71798;54.942;73.444;2024-02-21T06:01:19;23.25;20.00;12.00
80861;PMS5003;71798;54.942;73.444;2024-02-21T06:03:47;24.00;19.50;10.75
80861;PMS5003;71798;54.942;73.444;2024-02-21T06:06:13;16.50;13.50;7.00
80861;PMS5003;71798;54.942;73.444;2024-02-21T06:08:43;35.00;28.25;17.00
80861;PMS5003;71798;54.942;73.444;2024-02-21T06:11:09;24.75;18.50;10.75
80861;PMS5003;71798;54.942;73.444;2024-02-21T06:13:38;33.00;25.75;14.75
80861;PMS5003;71798;54.942;73.444;2024-02-21T06:16:04;32.00;25.25;13.75
80861;PMS5003;71798;54.942;73.444;2024-02-21T06:18:31;23.25;19.25;11.25
80861;PMS5003;71798;54.942;73.444;2024-02-21T06:20:57;18.00;16.00;9.00
80861;PMS5003;71798;54.942;73.444;2024-02-21T06:23:23;17.00;15.00;8.25
80861;PMS5003;71798;54.942;73.444;2024-02-21T06:25:49;30.00;25.00;14.00
80861;PMS5003;71798;54.942;73.444;2024-02-21T06:28:16;21.00;17.50;9.00
80861;PMS5003;71798;54.942;73.444;2024-02-21T06:30:42;25.75;21.50;12.25
80861;PMS5003;71798;54.942;73.444;2024-02-21T06:33:08;20.00;16.00;9.00
80861;PMS5003;71798;54.942;73.444;2024-02-21T06:35:34;34.00;26.00;15.00
80861;PMS5003;71798;54.942;73.444;2024-02-21T06:38:01;17.75;13.50;7.00
80861;PMS5003;71798;54.942;73.444;2024-02-21T06:40:27;21.00;17.00;10.00
80861;PMS5003;71798;54.942;73.444;2024-02-21T06:42:53;29.50;23.50;12.00
80861;PMS5003;71798;54.942;73.444;2024-02-21T06:45:19;23.50;19.25;11.00
80861;PMS5003;71798;54.942;73.444;2024-02-21T06:47:46;17.00;15.00;9.00
80861;PMS5003;71798;54.942;73.444;2024-02-21T06:50:13;25.50;21.00;12.75
80861;PMS5003;71798;54.942;73.444;2024-02-21T06:52:39;14.00;13.00;7.00
80861;PMS5003;71798;54.942;73.444;2024-02-21T06:55:05;31.75;26.00;16.75
80861;PMS5003;71798;54.942;73.444;2024-02-21T06:57:32;19.00;16.00;8.00
80861;PMS5003;71798;54.942;73.444;2024-02-21T06:59:58;21.00;18.25;11.00
80861;PMS5003;71798;54.942;73.444;2024-02-21T07:02:24;28.00;23.00;12.00
80861;PMS5003;71798;54.942;73.444;2024-02-21T07:04:50;65.00;49.00;28.75
80861;PMS5003;71798;54.942;73.444;2024-02-21T07:07:16;30.00;24.25;15.00
80861;PMS5003;71798;54.942;73.444;2024-02-21T07:09:43;29.75;24.50;13.25
80861;PMS5003;71798;54.942;73.444;2024-02-21T07:12:22;24.75;20.75;13.00
80861;PMS5003;71798;54.942;73.444;2024-02-21T07:14:48;10.25;9.00;4.75
80861;PMS5003;71798;54.942;73.444;2024-02-21T07:17:15;19.00;14.00;8.00
80861;PMS5003;71798;54.942;73.444;2024-02-21T07:19:41;29.25;23.50;13.75
80861;PMS5003;71798;54.942;73.444;2024-02-21T07:22:08;27.00;23.00;14.00
80861;PMS5003;71798;54.942;73.444;2024-02-21T07:24:34;25.75;20.00;11.75
80861;PMS5003;71798;54.942;73.444;2024-02-21T07:27:01;22.00;18.00;10.00
80861;PMS5003;71798;54.942;73.444;2024-02-21T07:29:30;19.50;14.50;7.75
80861;PMS5003;71798;54.942;73.444;2024-02-21T07:31:56;26.00;22.00;13.00
80861;PMS5003;71798;54.942;73.444;2024-02-21T07:34:23;24.00;20.00;11.00
80861;PMS5003;71798;54.942;73.444;2024-02-21T07:37:09;17.50;15.25;8.00
80861;PMS5003;71798;54.942;73.444;2024-02-21T07:39:38;23.25;20.00;12.00
80861;PMS5003;71798;54.942;73.444;2024-02-21T07:42:04;19.00;16.00;8.00
80861;PMS5003;71798;54.942;73.444;2024-02-21T07:44:31;18.25;15.25;9.25
80861;PMS5003;71798;54.942;73.444;2024-02-21T07:46:58;19.00;15.00;8.00
80861;PMS5003;71798;54.942;73.444;2024-02-21T07:49:24;31.25;24.00;14.75
80861;PMS5003;71798;54.942;73.444;2024-02-21T07:51:51;30.00;24.00;14.00
80861;PMS5003;71798;54.942;73.444;2024-02-21T07:54:18;20.00;16.00;9.00
80861;PMS5003;71798;54.942;73.444;2024-02-21T07:56:45;22.00;18.00;10.00
80861;PMS5003;71798;54.942;73.444;2024-02-21T07:59:11;23.00;19.00;11.00
80861;PMS5003;71798;54.942;73.444;2024-02-21T08:01:39;31.75;24.00;13.00
80861;PMS5003;71798;54.942;73.444;2024-02-21T08:04:05;33.00;26.75;16.00
80861;PMS5003;71798;54.942;73.444;2024-02-21T08:06:31;26.00;21.00;12.25
80861;PMS5003;71798;54.942;73.444;2024-02-21T08:08:58;29.00;24.00;14.00
80861;PMS5003;71798;54.942;73.444;2024-02-21T08:11:24;26.75;21.25;13.25
80861;PMS5003;71798;54.942;73.444;2024-02-21T08:13:50;30.50;25.25;16.00
80861;PMS5003;71798;54.942;73.444;2024-02-21T08:16:16;27.50;24.00;15.25
80861;PMS5003;71798;54.942;73.444;2024-02-21T08:18:44;22.00;19.00;11.00
80861;PMS5003;71798;54.942;73.444;2024-02-21T08:21:10;40.75;32.00;19.75
80861;PMS5003;71798;54.942;73.444;2024-02-21T08:23:37;33.50;26.00;15.00
80861;PMS5003;71798;54.942;73.444;2024-02-21T08:26:04;33.50;27.50;18.00
80861;PMS5003;71798;54.942;73.444;2024-02-21T08:28:31;33.50;27.50;17.00
80861;PMS5003;71798;54.942;73.444;2024-02-21T08:30:57;36.50;28.00;16.25
80861;PMS5003;71798;54.942;73.444;2024-02-21T08:33:23;44.00;34.00;21.00
80861;PMS5003;71798;54.942;73.444;2024-02-21T08:35:53;18.75;16.50;8.50
80861;PMS5003;71798;54.942;73.444;2024-02-21T08:38:19;30.50;21.00;11.00
80861;PMS5003;71798;54.942;73.444;2024-02-21T08:40:46;29.00;25.00;13.00
80861;PMS5003;71798;54.942;73.444;2024-02-21T08:43:12;31.50;25.25;14.50
80861;PMS5003;71798;54.942;73.444;2024-02-21T08:45:38;20.00;15.75;7.50
80861;PMS5003;71798;54.942;73.444;2024-02-21T08:48:04;42.00;33.50;19.50
80861;PMS5003;71798;54.942;73.444;2024-02-21T08:50:31;44.00;35.25;20.00
80861;PMS5003;71798;54.942;73.444;2024-02-21T08:52:57;47.50;35.50;20.00
80861;PMS5003;71798;54.942;73.444;2024-02-21T08:55:23;35.00;27.00;16.00
80861;PMS5003;71798;54.942;73.444;2024-02-21T08:57:49;44.25;34.00;19.25
80861;PMS5003;71798;54.942;73.444;2024-02-21T09:00:16;51.50;39.00;21.00
80861;PMS5003;71798;54.942;73.444;2024-02-21T09:02:42;50.00;38.25;23.00
80861;PMS5003;71798;54.942;73.444;2024-02-21T09:05:09;34.75;28.25;15.25
80861;PMS5003;71798;54.942;73.444;2024-02-21T09:07:35;47.25;37.50;22.75
80861;PMS5003;71798;54.942;73.444;2024-02-21T09:10:01;40.25;31.25;20.00
80861;PMS5003;71798;54.942;73.444;2024-02-21T09:12:28;36.25;28.00;17.00
80861;PMS5003;71798;54.942;73.444;2024-02-21T09:14:56;36.00;30.00;18.00
80861;PMS5003;71798;54.942;73.444;2024-02-21T09:17:22;34.00;26.75;16.50
80861;PMS5003;71798;54.942;73.444;2024-02-21T09:19:50;39.50;31.25;18.25
80861;PMS5003;71798;54.942;73.444;2024-02-21T09:22:16;35.00;28.00;16.75
80861;PMS5003;71798;54.942;73.444;2024-02-21T09:24:42;23.50;20.50;12.00
80861;PMS5003;71798;54.942;73.444;2024-02-21T09:27:08;51.50;41.75;27.50
80861;PMS5003;71798;54.942;73.444;2024-02-21T09:29:35;23.50;19.50;10.75
80861;PMS5003;71798;54.942;73.444;2024-02-21T09:32:02;19.75;15.75;9.00
80861;PMS5003;71798;54.942;73.444;2024-02-21T09:34:29;35.50;27.50;14.00
80861;PMS5003;71798;54.942;73.444;2024-02-21T09:36:55;32.50;25.50;15.50
80861;PMS5003;71798;54.942;73.444;2024-02-21T09:39:22;39.00;31.00;18.50
80861;PMS5003;71798;54.942;73.444;2024-02-21T09:41:58;46.00;35.50;22.00
80861;PMS5003;71798;54.942;73.444;2024-02-21T09:44:25;34.50;27.50;16.50
80861;PMS5003;71798;54.942;73.444;2024-02-21T09:46:57;43.75;32.50;19.50
80861;PMS5003;71798;54.942;73.444;2024-02-21T09:52:02;27.50;23.25;11.75
80861;PMS5003;71798;54.942;73.444;2024-02-21T09:54:29;31.75;25.75;16.50
80861;PMS5003;71798;54.942;73.444;2024-02-21T09:56:57;41.25;32.75;19.75
80861;PMS5003;71798;54.942;73.444;2024-02-21T09:59:23;32.00;26.00;16.00
80861;PMS5003;71798;54.942;73.444;2024-02-21T10:01:50;28.50;22.75;14.50
80861;PMS5003;71798;54.942;73.444;2024-02-21T10:04:17;37.00;29.75;18.00
80861;PMS5003;71798;54.942;73.444;2024-02-21T10:06:44;38.00;29.25;17.25
80861;PMS5003;71798;54.942;73.444;2024-02-21T10:09:20;31.00;25.00;16.00
80861;PMS5003;71798;54.942;73.444;2024-02-21T10:11:47;30.25;24.75;13.00
80861;PMS5003;71798;54.942;73.444;2024-02-21T10:14:13;22.00;18.50;10.25
80861;PMS5003;71798;54.942;73.444;2024-02-21T10:16:41;28.75;23.00;12.25
80861;PMS5003;71798;54.942;73.444;2024-02-21T10:19:15;30.00;23.75;14.50
80861;PMS5003;71798;54.942;73.444;2024-02-21T10:21:42;37.25;29.50;16.75
80861;PMS5003;71798;54.942;73.444;2024-02-21T10:24:08;30.00;25.00;15.75
80861;PMS5003;71798;54.942;73.444;2024-02-21T10:26:36;42.00;33.75;20.25
80861;PMS5003;71798;54.942;73.444;2024-02-21T10:29:03;30.00;25.00;15.00
80861;PMS5003;71798;54.942;73.444;2024-02-21T10:31:30;38.50;30.25;18.00
80861;PMS5003;71798;54.942;73.444;2024-02-21T10:33:57;27.00;22.00;10.00
80861;PMS5003;71798;54.942;73.444;2024-02-21T10:36:24;36.75;30.00;17.50
80861;PMS5003;71798;54.942;73.444;2024-02-21T10:38:51;35.00;27.75;17.00
80861;PMS5003;71798;54.942;73.444;2024-02-21T10:41:19;47.00;37.00;23.00
80861;PMS5003;71798;54.942;73.444;2024-02-21T10:43:47;34.50;28.25;16.50
80861;PMS5003;71798;54.942;73.444;2024-02-21T10:46:15;33.75;27.00;14.25
80861;PMS5003;71798;54.942;73.444;2024-02-21T10:48:44;36.75;28.00;16.00
80861;PMS5003;71798;54.942;73.444;2024-02-21T10:51:15;30.25;25.75;15.50
80861;PMS5003;71798;54.942;73.444;2024-02-21T10:59:11;40.75;32.25;18.50
80861;PMS5003;71798;54.942;73.444;2024-02-21T11:02:21;30.00;24.50;13.75
80861;PMS5003;71798;54.942;73.444;2024-02-21T11:05:31;35.25;28.00;16.75
80861;PMS5003;71798;54.942;73.444;2024-02-21T11:08:43;34.00;27.00;17.00
80861;PMS5003;71798;54.942;73.444;2024-02-21T11:11:54;51.00;37.50;22.50
80861;PMS5003;71798;54.942;73.444;2024-02-21T11:15:05;48.50;38.00;23.50
80861;PMS5003;71798;54.942;73.444;2024-02-21T11:18:25;40.25;34.00;21.00
80861;PMS5003;71798;54.942;73.444;2024-02-21T11:21:32;46.75;35.75;21.25
80861;PMS5003;71798;54.942;73.444;2024-02-21T11:24:37;31.75;26.00;14.50
80861;PMS5003;71798;54.942;73.444;2024-02-21T11:27:49;47.00;36.50;21.00
80861;PMS5003;71798;54.942;73.444;2024-02-21T11:31:10;37.25;30.00;18.50
80861;PMS5003;71798;54.942;73.444;2024-02-21T11:34:32;50.00;39.00;24.00
80861;PMS5003;71798;54.942;73.444;2024-02-21T11:37:44;49.50;38.00;24.00
80861;PMS5003;71798;54.942;73.444;2024-02-21T11:40:14;45.00;35.00;21.00
80861;PMS5003;71798;54.942;73.444;2024-02-21T11:42:43;31.00;23.75;14.00
80861;PMS5003;71798;54.942;73.444;2024-02-21T11:45:14;30.75;23.75;12.50
80861;PMS5003;71798;54.942;73.444;2024-02-21T11:47:43;49.00;37.75;23.00
80861;PMS5003;71798;54.942;73.444;2024-02-21T11:50:14;40.25;31.75;19.00
80861;PMS5003;71798;54.942;73.444;2024-02-21T11:52:42;53.00;41.25;25.50
80861;PMS5003;71798;54.942;73.444;2024-02-21T11:55:13;44.25;34.50;21.00
80861;PMS5003;71798;54.942;73.444;2024-02-21T11:57:43;53.00;41.75;26.00
80861;PMS5003;71798;54.942;73.444;2024-02-21T12:00:14;64.50;49.75;28.50
80861;PMS5003;71798;54.942;73.444;2024-02-21T12:02:46;48.25;39.00;23.00
80861;PMS5003;71798;54.942;73.444;2024-02-21T12:05:14;53.00;42.00;25.75
80861;PMS5003;71798;54.942;73.444;2024-02-21T12:08:02;32.00;26.00;16.00
80861;PMS5003;71798;54.942;73.444;2024-02-21T12:10:31;40.50;32.00;19.00
80861;PMS5003;71798;54.942;73.444;2024-02-21T12:13:10;44.25;36.00;21.00
80861;PMS5003;71798;54.942;73.444;2024-02-21T12:15:40;46.00;37.00;23.00
80861;PMS5003;71798;54.942;73.444;2024-02-21T12:18:10;44.00;33.00;18.25
80861;PMS5003;71798;54.942;73.444;2024-02-21T12:20:44;50.00;39.00;23.00
80861;PMS5003;71798;54.942;73.444;2024-02-21T12:23:15;53.00;42.00;26.00
80861;PMS5003;71798;54.942;73.444;2024-02-21T12:25:43;56.25;43.75;27.25
80861;PMS5003;71798;54.942;73.444;2024-02-21T12:28:14;44.25;34.50;20.50
80861;PMS5003;71798;54.942;73.444;2024-02-21T12:30:46;48.25;38.50;23.50
80861;PMS5003;71798;54.942;73.444;2024-02-21T12:33:13;50.00;38.50;23.00
80861;PMS5003;71798;54.942;73.444;2024-02-21T12:35:44;47.25;37.50;23.00
80861;PMS5003;71798;54.942;73.444;2024-02-21T12:38:15;40.75;32.75;19.75
80861;PMS5003;71798;54.942;73.444;2024-02-21T12:40:45;51.75;42.00;25.00
80861;PMS5003;71798;54.942;73.444;2024-02-21T12:43:26;45.75;36.25;22.50
80861;PMS5003;71798;54.942;73.444;2024-02-21T12:45:58;53.00;41.50;26.00
80861;PMS5003;71798;54.942;73.444;2024-02-21T12:48:26;53.75;41.75;26.00
80861;PMS5003;71798;54.942;73.444;2024-02-21T12:50:56;59.00;46.00;28.25
80861;PMS5003;71798;54.942;73.444;2024-02-21T12:53:26;67.25;51.50;31.50
80861;PMS5003;71798;54.942;73.444;2024-02-21T12:55:58;70.00;54.75;33.00
80861;PMS5003;71798;54.942;73.444;2024-02-21T12:58:28;72.00;56.50;33.00
80861;PMS5003;71798;54.942;73.444;2024-02-21T13:00:58;71.50;56.00;33.50
80861;PMS5003;71798;54.942;73.444;2024-02-21T13:03:28;62.50;47.25;28.00
80861;PMS5003;71798;54.942;73.444;2024-02-21T13:06:18;62.25;48.00;27.25
80861;PMS5003;71798;54.942;73.444;2024-02-21T13:08:50;69.75;52.50;31.50
80861;PMS5003;71798;54.942;73.444;2024-02-21T13:11:18;60.50;47.00;27.50
80861;PMS5003;71798;54.942;73.444;2024-02-21T13:13:47;56.75;43.25;26.00
80861;PMS5003;71798;54.942;73.444;2024-02-21T13:16:15;61.25;47.75;29.00
80861;PMS5003;71798;54.942;73.444;2024-02-21T13:19:00;61.00;47.75;28.00
80861;PMS5003;71798;54.942;73.444;2024-02-21T13:21:31;61.00;46.25;27.75
80861;PMS5003;71798;54.942;73.444;2024-02-21T13:24:01;48.50;39.50;23.50
80861;PMS5003;71798;54.942;73.444;2024-02-21T13:26:48;61.25;48.50;29.50
80861;PMS5003;71798;54.942;73.444;2024-02-21T13:29:30;56.00;43.00;25.75
80861;PMS5003;71798;54.942;73.444;2024-02-21T13:31:58;58.25;45.25;28.75
80861;PMS5003;71798;54.942;73.444;2024-02-21T13:34:26;51.25;41.75;25.00
80861;PMS5003;71798;54.942;73.444;2024-02-21T13:36:57;50.75;40.75;23.50
80861;PMS5003;71798;54.942;73.444;2024-02-21T13:39:44;48.00;38.00;22.00
80861;PMS5003;71798;54.942;73.444;2024-02-21T13:42:17;43.25;33.75;20.50
80861;PMS5003;71798;54.942;73.444;2024-02-21T13:44:46;60.50;46.50;30.00
80861;PMS5003;71798;54.942;73.444;2024-02-21T13:47:16;57.00;46.00;29.00
80861;PMS5003;71798;54.942;73.444;2024-02-21T13:49:46;54.25;43.75;27.00
80861;PMS5003;71798;54.942;73.444;2024-02-21T13:52:15;54.00;43.00;26.00
80861;PMS5003;71798;54.942;73.444;2024-02-21T13:55:02;55.25;43.25;26.25
80861;PMS5003;71798;54.942;73.444;2024-02-21T13:57:48;59.00;45.00;28.00
80861;PMS5003;71798;54.942;73.444;2024-02-21T14:00:20;51.00;41.00;25.00
80861;PMS5003;71798;54.942;73.444;2024-02-21T14:02:52;50.75;39.50;23.50
80861;PMS5003;71798;54.942;73.444;2024-02-21T14:05:22;56.00;43.00;26.00
80861;PMS5003;71798;54.942;73.444;2024-02-21T14:07:49;54.00;42.50;27.00
80861;PMS5003;71798;54.942;73.444;2024-02-21T14:10:20;53.50;42.25;26.00
80861;PMS5003;71798;54.942;73.444;2024-02-21T14:12:49;39.75;30.75;18.00
80861;PMS5003;71798;54.942;73.444;2024-02-21T14:15:22;47.50;38.00;24.00
80861;PMS5003;71798;54.942;73.444;2024-02-21T14:17:52;41.75;33.75;20.50